| time (UTC) | temp C | wind direction | speed KPH | gust KPH | rain 1hr cm | rain 24hr cm | rain mn cm | humidity % | barometer mb |
| 20260510100318 | 21 | 298 | 0.0 | 0.0 | 0.00 | 0.74 | 0.03 | 95 | 1012.9 |
| 20260510094836 | 21 | 298 | 0.0 | 0.0 | 0.00 | 0.74 | 0.03 | 95 | 1012.7 |
| 20260510093323 | 21 | 298 | 0.0 | 0.0 | 0.00 | 0.74 | 0.03 | 95 | 1012.6 |
| 20260510091812 | 21 | 298 | 0.0 | 0.0 | 0.00 | 0.74 | 0.03 | 95 | 1012.4 |
| 20260510090348 | 21 | 298 | 0.0 | 0.0 | 0.00 | 0.74 | 0.03 | 95 | 1012.3 |
| 20260510084843 | 21 | 298 | 0.0 | 0.0 | 0.00 | 0.74 | 0.03 | 95 | 1012.1 |
| 20260510083322 | 21 | 298 | 0.0 | 0.0 | 0.00 | 0.74 | 0.03 | 95 | 1011.9 |
| 20260510081812 | 21 | 298 | 0.0 | 0.0 | 0.03 | 0.74 | 0.03 | 95 | 1012.0 |
| 20260510080327 | 21 | 298 | 0.0 | 1.6 | 0.03 | 0.74 | 0.03 | 95 | 1012.0 |
| 20260510074839 | 21 | 298 | 0.0 | 0.0 | 0.03 | 0.74 | 0.03 | 95 | 1012.0 |
| 20260510073325 | 21 | 298 | 0.0 | 0.0 | 0.03 | 0.74 | 0.03 | 94 | 1012.0 |
| 20260510071821 | 21 | 298 | 0.0 | 1.6 | 0.00 | 0.71 | 0.00 | 94 | 1011.9 |
| 20260510070327 | 21 | 298 | 0.0 | 0.0 | 0.00 | 0.71 | 0.00 | 94 | 1011.8 |
| 20260510064819 | 21 | 298 | 0.0 | 0.0 | 0.00 | 0.71 | 0.00 | 94 | 1011.8 |
| 20260510063344 | 21 | 298 | 0.0 | 0.0 | 0.00 | 0.71 | 0.00 | 94 | 1012.0 |
| 20260510061837 | 21 | 298 | 0.0 | 0.0 | 0.00 | 0.71 | 0.00 | 94 | 1012.1 |
| 20260510060321 | 21 | 298 | 0.0 | 0.0 | 0.00 | 0.71 | 0.00 | 94 | 1012.1 |
| 20260510054832 | 21 | 298 | 0.0 | 0.0 | 0.00 | 0.71 | 0.00 | 94 | 1012.5 |
| 20260510053324 | 21 | 298 | 0.0 | 0.0 | 0.00 | 0.71 | 0.00 | 94 | 1012.6 |
| 20260510051817 | 21 | 298 | 0.0 | 0.0 | 0.00 | 0.71 | 0.00 | 94 | 1012.9 |
| 20260510050327 | 21 | 298 | 0.0 | 0.0 | 0.00 | 0.71 | 0.00 | 94 | 1013.2 |
| 20260510044824 | 21 | 298 | 0.0 | 0.0 | 0.00 | 0.71 | 0.00 | 94 | 1013.3 |
| 20260510043331 | 21 | 298 | 0.0 | 0.0 | 0.00 | 0.71 | 0.00 | 94 | 1013.2 |
| 20260510041826 | 21 | 298 | 0.0 | 0.0 | 0.00 | 0.71 | 0.00 | 94 | 1013.2 |
| 20260510040312 | 21 | 298 | 0.0 | 0.0 | 0.00 | 0.71 | 0.00 | 94 | 1013.3 |
| 20260510034825 | 21 | 298 | 0.0 | 0.0 | 0.00 | 0.94 | 0.71 | 94 | 1013.3 |
| 20260510033318 | 22 | 298 | 0.0 | 0.0 | 0.00 | 0.94 | 0.71 | 94 | 1013.4 |
| 20260510031814 | 21 | 298 | 0.0 | 1.6 | 0.00 | 0.94 | 0.71 | 93 | 1013.5 |
| 20260510030352 | 22 | 298 | 0.0 | 0.0 | 0.00 | 0.94 | 0.71 | 93 | 1013.3 |
| 20260510024818 | 22 | 298 | 0.0 | 1.6 | 0.00 | 1.22 | 0.71 | 93 | 1013.1 |
| 20260510023332 | 22 | 298 | 1.6 | 3.2 | 0.00 | 1.22 | 0.71 | 93 | 1013.0 |
| 20260510021824 | 22 | 298 | 1.6 | 3.2 | 0.00 | 1.22 | 0.71 | 93 | 1012.8 |
| 20260510020317 | 22 | 298 | 0.0 | 1.6 | 0.00 | 1.22 | 0.71 | 93 | 1012.4 |
| 20260510014826 | 22 | 298 | 0.0 | 0.0 | 0.00 | 1.22 | 0.71 | 93 | 1012.2 |
| 20260510013341 | 22 | 298 | 0.0 | 1.6 | 0.00 | 1.22 | 0.71 | 93 | 1011.8 |
| 20260510011818 | 22 | 298 | 0.0 | 1.6 | 0.00 | 1.22 | 0.71 | 92 | 1012.0 |
| 20260510010355 | 22 | 298 | 0.0 | 1.6 | 0.03 | 1.22 | 0.71 | 92 | 1011.9 |
| 20260510004846 | 22 | 298 | 0.0 | 1.6 | 0.03 | 1.22 | 0.71 | 92 | 1011.8 |
| 20260510003313 | 22 | 298 | 0.0 | 3.2 | 0.05 | 1.22 | 0.71 | 92 | 1011.9 |
| 20260510001828 | 22 | 343 | 1.6 | 3.2 | 0.05 | 1.22 | 0.71 | 92 | 1011.9 |
| 20260510000313 | 22 | 244 | 0.0 | 3.2 | 0.03 | 1.19 | 0.69 | 92 | 1012.2 |
| 20260509234830 | 22 | 30 | 0.0 | 1.6 | 0.03 | 1.19 | 0.69 | 92 | 1012.4 |
| 20260509233319 | 22 | 30 | 0.0 | 1.6 | 0.00 | 1.17 | 0.66 | 91 | 1012.3 |
| 20260509231837 | 22 | 30 | 0.0 | 1.6 | 0.00 | 1.17 | 0.66 | 91 | 1012.3 |
| 20260509230331 | 22 | 30 | 0.0 | 3.2 | 0.00 | 1.17 | 0.66 | 91 | 1012.1 |
| 20260509224827 | 22 | 30 | 0.0 | 4.8 | 0.00 | 1.17 | 0.66 | 91 | 1012.0 |
| 20260509223323 | 22 | 15 | 1.6 | 3.2 | 0.00 | 1.17 | 0.66 | 91 | 1012.2 |
| 20260509221817 | 22 | 355 | 1.6 | 8.0 | 0.00 | 1.17 | 0.66 | 91 | 1012.1 |
| 20260509220321 | 22 | 5 | 3.2 | 6.4 | 0.00 | 1.17 | 0.66 | 90 | 1012.0 |
| 20260509214853 | 22 | 46 | 1.6 | 6.4 | 0.00 | 1.17 | 0.66 | 90 | 1011.9 |
| 20260509213351 | 23 | 55 | 1.6 | 6.4 | 0.00 | 1.17 | 0.66 | 90 | 1011.8 |
| 20260509211825 | 23 | 38 | 4.8 | 9.7 | 0.00 | 1.17 | 0.66 | 90 | 1011.7 |
| 20260509210333 | 23 | 355 | 3.2 | 16.1 | 0.03 | 1.17 | 0.66 | 90 | 1011.5 |
| 20260509204829 | 23 | 277 | 6.4 | 14.5 | 0.05 | 1.17 | 0.66 | 90 | 1011.5 |
| 20260509203343 | 24 | 343 | 3.2 | 9.7 | 0.05 | 1.17 | 0.66 | 90 | 1011.6 |
| 20260509201813 | 24 | 307 | 6.4 | 20.9 | 0.08 | 1.17 | 0.66 | 90 | 1011.6 |
| 20260509200327 | 25 | 323 | 4.8 | 14.5 | 0.08 | 1.14 | 0.64 | 89 | 1011.5 |
| 20260509194819 | 25 | 298 | 1.6 | 4.8 | 0.30 | 1.12 | 0.61 | 88 | 1011.5 |
| 20260509193332 | 25 | 221 | 0.0 | 4.8 | 0.58 | 1.12 | 0.61 | 86 | 1011.5 |
| 20260509191826 | 25 | 241 | 1.6 | 4.8 | 0.56 | 1.09 | 0.58 | 85 | 1011.6 |
| 20260509190314 | 26 | 333 | 0.0 | 3.2 | 0.53 | 1.07 | 0.56 | 83 | 1011.7 |
| 20260509184827 | 27 | 195 | 1.6 | 4.8 | 0.25 | 0.79 | 0.28 | 80 | 1011.5 |
| 20260509183312 | 27 | 85 | 1.6 | 4.8 | 0.00 | 0.53 | 0.03 | 77 | 1011.5 |
| 20260509181843 | 27 | 84 | 3.2 | 4.8 | 0.00 | 0.53 | 0.03 | 76 | 1011.7 |
| 20260509180338 | 27 | 82 | 1.6 | 4.8 | 0.00 | 0.53 | 0.03 | 76 | 1011.7 |
| 20260509174850 | 27 | 38 | 4.8 | 8.0 | 0.00 | 0.53 | 0.03 | 76 | 1011.7 |
| 20260509173319 | 27 | 265 | 0.0 | 4.8 | 0.00 | 0.53 | 0.03 | 77 | 1012.1 |
| 20260509171828 | 27 | 143 | 3.2 | 4.8 | 0.00 | 0.53 | 0.03 | 77 | 1012.1 |
| 20260509170329 | 26 | 197 | 1.6 | 4.8 | 0.00 | 0.53 | 0.03 | 79 | 1012.0 |
| 20260509164821 | 26 | 107 | 3.2 | 6.4 | 0.00 | 0.53 | 0.03 | 81 | 1012.1 |
| 20260509163350 | 25 | 197 | 1.6 | 6.4 | 0.00 | 0.53 | 0.03 | 83 | 1012.1 |
| 20260509161818 | 25 | 212 | 1.6 | 4.8 | 0.00 | 0.53 | 0.03 | 83 | 1012.5 |
| 20260509160321 | 25 | 144 | 0.0 | 3.2 | 0.00 | 0.53 | 0.03 | 84 | 1012.5 |
| 20260509154813 | 24 | 144 | 0.0 | 3.2 | 0.00 | 0.53 | 0.03 | 85 | 1012.7 |
| 20260509153326 | 24 | 62 | 1.6 | 8.0 | 0.00 | 0.53 | 0.03 | 85 | 1012.4 |
| 20260509151830 | 24 | 350 | 1.6 | 4.8 | 0.00 | 0.53 | 0.03 | 86 | 1012.6 |
| 20260509150323 | 24 | 54 | 1.6 | 4.8 | 0.03 | 0.53 | 0.03 | 88 | 1012.5 |
| 20260509144836 | 23 | 153 | 1.6 | 3.2 | 0.03 | 0.53 | 0.03 | 91 | 1012.7 |
| 20260509143359 | 23 | 5 | 1.6 | 3.2 | 0.03 | 0.53 | 0.03 | 92 | 1012.6 |
| 20260509141822 | 22 | 294 | 1.6 | 4.8 | 0.03 | 0.53 | 0.03 | 93 | 1012.6 |
| 20260509140332 | 22 | 265 | 0.0 | 3.2 | 0.00 | 0.51 | 0.00 | 93 | 1012.3 |
| 20260509134813 | 22 | 317 | 1.6 | 3.2 | 0.00 | 0.51 | 0.00 | 94 | 1012.6 |
| 20260509133324 | 22 | 275 | 1.6 | 6.4 | 0.00 | 0.51 | 0.00 | 94 | 1012.5 |
| 20260509131833 | 22 | 307 | 3.2 | 6.4 | 0.00 | 0.51 | 0.00 | 94 | 1012.3 |
| 20260509130320 | 21 | 302 | 1.6 | 3.2 | 0.00 | 0.51 | 0.00 | 94 | 1012.2 |
| 20260509124834 | 21 | 304 | 0.0 | 1.6 | 0.00 | 0.51 | 0.00 | 94 | 1012.0 |
| 20260509123320 | 21 | 17 | 1.6 | 3.2 | 0.00 | 0.51 | 0.00 | 94 | 1011.8 |
| 20260509121817 | 21 | 17 | 0.0 | 3.2 | 0.00 | 0.51 | 0.00 | 94 | 1011.6 |
| 20260509120321 | 20 | 323 | 1.6 | 3.2 | 0.00 | 0.51 | 0.00 | 94 | 1011.6 |
| 20260509114813 | 20 | 294 | 1.6 | 6.4 | 0.00 | 0.51 | 0.00 | 94 | 1011.7 |
| 20260509113318 | 20 | 207 | 4.8 | 9.7 | 0.00 | 0.51 | 0.00 | 94 | 1011.1 |
| 20260509111827 | 20 | 208 | 4.8 | 11.3 | 0.00 | 0.51 | 0.00 | 94 | 1010.8 |
| 20260509110337 | 20 | 197 | 3.2 | 9.7 | 0.00 | 0.51 | 0.00 | 94 | 1010.6 |
| 20260509104818 | 19 | 155 | 6.4 | 11.3 | 0.00 | 0.51 | 0.00 | 94 | 1010.2 |
| 20260509103348 | 19 | 171 | 4.8 | 12.9 | 0.00 | 0.51 | 0.00 | 94 | 1010.2 |
| 20260509101819 | 19 | 162 | 1.6 | 6.4 | 0.00 | 0.51 | 0.00 | 94 | 1010.4 |